sensor_id;sensor_type;location;lat;lon;timestamp;P1;durP1;ratioP1;P2;durP2;ratioP2
24681;SDS011;12802;53.390;-2.328;2023-02-28T00:00:12;1.98;;;0.70;;
24681;SDS011;12802;53.390;-2.328;2023-02-28T00:02:39;2.08;;;0.98;;
24681;SDS011;12802;53.390;-2.328;2023-02-28T00:05:07;2.28;;;0.90;;
24681;SDS011;12802;53.390;-2.328;2023-02-28T00:07:34;1.80;;;1.15;;
24681;SDS011;12802;53.390;-2.328;2023-02-28T00:10:00;1.73;;;1.02;;
24681;SDS011;12802;53.390;-2.328;2023-02-28T00:12:26;2.70;;;1.05;;
24681;SDS011;12802;53.390;-2.328;2023-02-28T00:14:52;0.80;;;0.77;;
24681;SDS011;12802;53.390;-2.328;2023-02-28T00:17:18;2.95;;;1.17;;
24681;SDS011;12802;53.390;-2.328;2023-02-28T00:19:49;0.80;;;0.73;;
24681;SDS011;12802;53.390;-2.328;2023-02-28T00:22:16;2.00;;;1.02;;
24681;SDS011;12802;53.390;-2.328;2023-02-28T00:24:43;2.15;;;0.88;;
24681;SDS011;12802;53.390;-2.328;2023-02-28T00:27:09;1.35;;;0.82;;
24681;SDS011;12802;53.390;-2.328;2023-02-28T00:29:35;3.28;;;1.15;;
24681;SDS011;12802;53.390;-2.328;2023-02-28T00:32:02;3.78;;;1.08;;
24681;SDS011;12802;53.390;-2.328;2023-02-28T00:34:29;1.65;;;1.20;;
24681;SDS011;12802;53.390;-2.328;2023-02-28T00:36:55;1.65;;;0.98;;
24681;SDS011;12802;53.390;-2.328;2023-02-28T00:39:21;1.88;;;1.13;;
24681;SDS011;12802;53.390;-2.328;2023-02-28T00:41:47;2.83;;;1.00;;
24681;SDS011;12802;53.390;-2.328;2023-02-28T00:44:13;1.60;;;1.17;;
24681;SDS011;12802;53.390;-2.328;2023-02-28T00:46:39;2.60;;;1.23;;
24681;SDS011;12802;53.390;-2.328;2023-02-28T00:49:05;4.65;;;1.65;;
24681;SDS011;12802;53.390;-2.328;2023-02-28T00:51:30;1.92;;;1.52;;
24681;SDS011;12802;53.390;-2.328;2023-02-28T00:53:56;1.92;;;1.20;;
24681;SDS011;12802;53.390;-2.328;2023-02-28T00:56:22;1.42;;;1.20;;
24681;SDS011;12802;53.390;-2.328;2023-02-28T00:58:48;4.50;;;1.77;;
24681;SDS011;12802;53.390;-2.328;2023-02-28T01:01:14;1.48;;;0.93;;
24681;SDS011;12802;53.390;-2.328;2023-02-28T01:03:40;1.58;;;1.20;;
24681;SDS011;12802;53.390;-2.328;2023-02-28T01:06:06;3.35;;;1.30;;
24681;SDS011;12802;53.390;-2.328;2023-02-28T01:08:31;2.60;;;1.85;;
24681;SDS011;12802;53.390;-2.328;2023-02-28T01:10:57;2.97;;;1.20;;
24681;SDS011;12802;53.390;-2.328;2023-02-28T01:13:31;2.55;;;1.60;;
24681;SDS011;12802;53.390;-2.328;2023-02-28T01:15:57;1.77;;;1.15;;
24681;SDS011;12802;53.390;-2.328;2023-02-28T01:18:24;2.58;;;1.40;;
24681;SDS011;12802;53.390;-2.328;2023-02-28T01:20:50;4.07;;;1.58;;
24681;SDS011;12802;53.390;-2.328;2023-02-28T01:23:18;3.22;;;1.40;;
24681;SDS011;12802;53.390;-2.328;2023-02-28T01:25:45;2.17;;;1.00;;
24681;SDS011;12802;53.390;-2.328;2023-02-28T01:28:11;5.65;;;1.55;;
24681;SDS011;12802;53.390;-2.328;2023-02-28T01:30:37;2.70;;;1.58;;
24681;SDS011;12802;53.390;-2.328;2023-02-28T01:33:03;3.63;;;1.83;;
24681;SDS011;12802;53.390;-2.328;2023-02-28T01:35:31;1.75;;;1.33;;
24681;SDS011;12802;53.390;-2.328;2023-02-28T01:40:24;1.98;;;1.30;;
24681;SDS011;12802;53.390;-2.328;2023-02-28T01:42:50;2.17;;;1.25;;
24681;SDS011;12802;53.390;-2.328;2023-02-28T01:45:34;2.95;;;1.33;;
24681;SDS011;12802;53.390;-2.328;2023-02-28T01:48:03;2.15;;;1.33;;
24681;SDS011;12802;53.390;-2.328;2023-02-28T01:50:34;4.70;;;1.88;;
24681;SDS011;12802;53.390;-2.328;2023-02-28T01:53:04;8.90;;;1.92;;
24681;SDS011;12802;53.390;-2.328;2023-02-28T01:55:35;3.22;;;1.80;;
24681;SDS011;12802;53.390;-2.328;2023-02-28T01:58:02;1.92;;;1.23;;
24681;SDS011;12802;53.390;-2.328;2023-02-28T02:00:32;3.22;;;1.70;;
24681;SDS011;12802;53.390;-2.328;2023-02-28T02:03:05;3.65;;;1.83;;
24681;SDS011;12802;53.390;-2.328;2023-02-28T02:05:35;1.58;;;1.25;;
24681;SDS011;12802;53.390;-2.328;2023-02-28T02:08:12;2.70;;;1.38;;
24681;SDS011;12802;53.390;-2.328;2023-02-28T02:18:37;3.05;;;2.25;;
24681;SDS011;12802;53.390;-2.328;2023-02-28T02:24:36;3.33;;;2.03;;
24681;SDS011;12802;53.390;-2.328;2023-02-28T02:32:48;12.85;;;2.05;;
24681;SDS011;12802;53.390;-2.328;2023-02-28T02:35:43;2.45;;;1.50;;
24681;SDS011;12802;53.390;-2.328;2023-02-28T02:38:38;3.50;;;1.50;;
24681;SDS011;12802;53.390;-2.328;2023-02-28T02:41:16;2.05;;;1.58;;
24681;SDS011;12802;53.390;-2.328;2023-02-28T02:43:51;2.55;;;1.48;;
24681;SDS011;12802;53.390;-2.328;2023-02-28T02:46:44;3.38;;;1.67;;
24681;SDS011;12802;53.390;-2.328;2023-02-28T02:49:13;2.00;;;1.20;;
24681;SDS011;12802;53.390;-2.328;2023-02-28T02:51:45;6.05;;;1.73;;
24681;SDS011;12802;53.390;-2.328;2023-02-28T02:54:20;3.60;;;1.85;;
24681;SDS011;12802;53.390;-2.328;2023-02-28T02:56:48;2.13;;;1.70;;
24681;SDS011;12802;53.390;-2.328;2023-02-28T02:59:17;3.33;;;1.50;;
24681;SDS011;12802;53.390;-2.328;2023-02-28T03:01:51;6.72;;;2.10;;
24681;SDS011;12802;53.390;-2.328;2023-02-28T03:04:22;3.45;;;2.00;;
24681;SDS011;12802;53.390;-2.328;2023-02-28T03:06:52;5.60;;;2.08;;
24681;SDS011;12802;53.390;-2.328;2023-02-28T03:09:22;4.07;;;2.05;;
24681;SDS011;12802;53.390;-2.328;2023-02-28T03:11:48;4.97;;;2.00;;
24681;SDS011;12802;53.390;-2.328;2023-02-28T03:17:17;2.33;;;1.50;;
24681;SDS011;12802;53.390;-2.328;2023-02-28T03:27:42;6.32;;;1.80;;
24681;SDS011;12802;53.390;-2.328;2023-02-28T03:30:45;3.58;;;2.50;;
24681;SDS011;12802;53.390;-2.328;2023-02-28T03:36:21;9.45;;;2.10;;
24681;SDS011;12802;53.390;-2.328;2023-02-28T03:38:52;2.65;;;2.10;;
24681;SDS011;12802;53.390;-2.328;2023-02-28T03:41:51;3.83;;;1.90;;
24681;SDS011;12802;53.390;-2.328;2023-02-28T03:44:23;3.50;;;1.80;;
24681;SDS011;12802;53.390;-2.328;2023-02-28T03:47:11;2.78;;;1.85;;
24681;SDS011;12802;53.390;-2.328;2023-02-28T03:52:19;2.55;;;2.08;;
24681;SDS011;12802;53.390;-2.328;2023-02-28T03:54:49;6.72;;;1.92;;
24681;SDS011;12802;53.390;-2.328;2023-02-28T03:57:20;4.63;;;1.67;;
24681;SDS011;12802;53.390;-2.328;2023-02-28T03:59:54;2.67;;;1.73;;
24681;SDS011;12802;53.390;-2.328;2023-02-28T04:02:24;3.33;;;2.05;;
24681;SDS011;12802;53.390;-2.328;2023-02-28T04:04:50;3.47;;;1.92;;
24681;SDS011;12802;53.390;-2.328;2023-02-28T04:07:16;4.15;;;2.28;;
24681;SDS011;12802;53.390;-2.328;2023-02-28T04:09:43;2.80;;;1.88;;
24681;SDS011;12802;53.390;-2.328;2023-02-28T04:12:09;2.67;;;1.33;;
24681;SDS011;12802;53.390;-2.328;2023-02-28T04:14:35;2.58;;;1.88;;
24681;SDS011;12802;53.390;-2.328;2023-02-28T04:17:01;1.75;;;1.50;;
24681;SDS011;12802;53.390;-2.328;2023-02-28T04:19:27;3.13;;;1.42;;
24681;SDS011;12802;53.390;-2.328;2023-02-28T04:21:53;3.05;;;1.60;;
24681;SDS011;12802;53.390;-2.328;2023-02-28T04:24:24;4.18;;;2.15;;
24681;SDS011;12802;53.390;-2.328;2023-02-28T04:26:53;2.70;;;1.80;;
24681;SDS011;12802;53.390;-2.328;2023-02-28T04:29:24;4.20;;;1.42;;
24681;SDS011;12802;53.390;-2.328;2023-02-28T04:31:54;4.15;;;2.17;;
24681;SDS011;12802;53.390;-2.328;2023-02-28T04:34:23;3.45;;;2.25;;
24681;SDS011;12802;53.390;-2.328;2023-02-28T04:36:49;3.05;;;1.70;;
24681;SDS011;12802;53.390;-2.328;2023-02-28T04:39:16;4.78;;;2.35;;
24681;SDS011;12802;53.390;-2.328;2023-02-28T04:41:43;4.40;;;2.25;;
24681;SDS011;12802;53.390;-2.328;2023-02-28T04:44:10;3.42;;;2.17;;
24681;SDS011;12802;53.390;-2.328;2023-02-28T04:46:36;3.47;;;2.10;;
24681;SDS011;12802;53.390;-2.328;2023-02-28T04:49:02;5.97;;;2.72;;
24681;SDS011;12802;53.390;-2.328;2023-02-28T04:51:28;6.47;;;2.75;;
24681;SDS011;12802;53.390;-2.328;2023-02-28T04:53:54;3.72;;;2.80;;
24681;SDS011;12802;53.390;-2.328;2023-02-28T04:56:20;4.60;;;2.60;;
24681;SDS011;12802;53.390;-2.328;2023-02-28T04:58:46;6.93;;;2.95;;
24681;SDS011;12802;53.390;-2.328;2023-02-28T05:01:18;4.05;;;2.92;;
24681;SDS011;12802;53.390;-2.328;2023-02-28T05:03:56;5.30;;;2.85;;
24681;SDS011;12802;53.390;-2.328;2023-02-28T05:06:24;6.43;;;3.00;;
24681;SDS011;12802;53.390;-2.328;2023-02-28T05:08:51;4.88;;;2.55;;
24681;SDS011;12802;53.390;-2.328;2023-02-28T05:11:25;4.70;;;3.42;;
24681;SDS011;12802;53.390;-2.328;2023-02-28T05:13:54;5.03;;;3.35;;
24681;SDS011;12802;53.390;-2.328;2023-02-28T05:16:20;5.18;;;3.00;;
24681;SDS011;12802;53.390;-2.328;2023-02-28T05:18:46;9.82;;;3.65;;
24681;SDS011;12802;53.390;-2.328;2023-02-28T05:21:26;5.88;;;3.42;;
24681;SDS011;12802;53.390;-2.328;2023-02-28T05:23:54;6.97;;;3.08;;
24681;SDS011;12802;53.390;-2.328;2023-02-28T05:26:21;4.93;;;2.90;;
24681;SDS011;12802;53.390;-2.328;2023-02-28T05:28:47;7.47;;;3.33;;
24681;SDS011;12802;53.390;-2.328;2023-02-28T05:31:13;8.43;;;3.22;;
24681;SDS011;12802;53.390;-2.328;2023-02-28T05:33:39;6.22;;;3.03;;
24681;SDS011;12802;53.390;-2.328;2023-02-28T05:36:05;6.13;;;3.30;;
24681;SDS011;12802;53.390;-2.328;2023-02-28T05:38:31;4.05;;;2.97;;
24681;SDS011;12802;53.390;-2.328;2023-02-28T05:40:57;3.67;;;2.67;;
24681;SDS011;12802;53.390;-2.328;2023-02-28T05:43:23;6.03;;;3.53;;
24681;SDS011;12802;53.390;-2.328;2023-02-28T05:45:49;3.85;;;2.28;;
24681;SDS011;12802;53.390;-2.328;2023-02-28T05:48:15;3.83;;;2.63;;
24681;SDS011;12802;53.390;-2.328;2023-02-28T05:50:41;3.67;;;2.28;;
24681;SDS011;12802;53.390;-2.328;2023-02-28T05:53:09;4.22;;;2.40;;
24681;SDS011;12802;53.390;-2.328;2023-02-28T05:55:35;6.55;;;2.90;;
24681;SDS011;12802;53.390;-2.328;2023-02-28T05:58:02;2.13;;;1.88;;
24681;SDS011;12802;53.390;-2.328;2023-02-28T06:00:28;3.55;;;2.38;;
24681;SDS011;12802;53.390;-2.328;2023-02-28T06:02:54;5.95;;;2.10;;
24681;SDS011;12802;53.390;-2.328;2023-02-28T06:05:23;3.65;;;2.30;;
24681;SDS011;12802;53.390;-2.328;2023-02-28T06:07:49;3.03;;;1.65;;
24681;SDS011;12802;53.390;-2.328;2023-02-28T06:10:15;4.20;;;1.90;;
24681;SDS011;12802;53.390;-2.328;2023-02-28T06:12:41;2.97;;;1.60;;
24681;SDS011;12802;53.390;-2.328;2023-02-28T06:15:10;4.10;;;1.85;;
24681;SDS011;12802;53.390;-2.328;2023-02-28T06:17:38;1.77;;;1.55;;
24681;SDS011;12802;53.390;-2.328;2023-02-28T06:20:04;3.97;;;2.22;;
24681;SDS011;12802;53.390;-2.328;2023-02-28T06:22:30;7.85;;;1.83;;
24681;SDS011;12802;53.390;-2.328;2023-02-28T06:24:56;2.40;;;1.88;;
24681;SDS011;12802;53.390;-2.328;2023-02-28T06:27:22;5.95;;;1.92;;
24681;SDS011;12802;53.390;-2.328;2023-02-28T06:29:48;4.30;;;2.22;;
24681;SDS011;12802;53.390;-2.328;2023-02-28T06:32:18;3.13;;;1.88;;
24681;SDS011;12802;53.390;-2.328;2023-02-28T06:34:44;1.40;;;1.17;;
24681;SDS011;12802;53.390;-2.328;2023-02-28T06:37:10;3.47;;;1.58;;
24681;SDS011;12802;53.390;-2.328;2023-02-28T06:39:36;3.03;;;1.45;;
24681;SDS011;12802;53.390;-2.328;2023-02-28T06:42:02;2.90;;;1.52;;
24681;SDS011;12802;53.390;-2.328;2023-02-28T06:44:28;3.55;;;1.30;;
24681;SDS011;12802;53.390;-2.328;2023-02-28T06:47:00;5.75;;;1.10;;
24681;SDS011;12802;53.390;-2.328;2023-02-28T06:49:33;2.15;;;0.90;;
24681;SDS011;12802;53.390;-2.328;2023-02-28T06:52:00;3.80;;;1.55;;
24681;SDS011;12802;53.390;-2.328;2023-02-28T06:54:26;2.97;;;1.55;;
24681;SDS011;12802;53.390;-2.328;2023-02-28T06:56:52;1.70;;;1.10;;
24681;SDS011;12802;53.390;-2.328;2023-02-28T06:59:19;2.55;;;1.70;;
24681;SDS011;12802;53.390;-2.328;2023-02-28T07:01:45;2.60;;;1.20;;
24681;SDS011;12802;53.390;-2.328;2023-02-28T07:04:11;1.55;;;0.95;;
24681;SDS011;12802;53.390;-2.328;2023-02-28T07:06:38;2.35;;;1.15;;
24681;SDS011;12802;53.390;-2.328;2023-02-28T07:09:04;1.50;;;1.13;;
24681;SDS011;12802;53.390;-2.328;2023-02-28T07:11:30;2.95;;;1.42;;
24681;SDS011;12802;53.390;-2.328;2023-02-28T07:13:56;1.67;;;1.15;;
24681;SDS011;12802;53.390;-2.328;2023-02-28T07:16:23;2.60;;;1.20;;
24681;SDS011;12802;53.390;-2.328;2023-02-28T07:18:51;2.30;;;1.25;;
24681;SDS011;12802;53.390;-2.328;2023-02-28T07:21:18;4.20;;;1.70;;
24681;SDS011;12802;53.390;-2.328;2023-02-28T07:23:43;4.00;;;1.40;;
24681;SDS011;12802;53.390;-2.328;2023-02-28T07:26:13;4.47;;;1.27;;
24681;SDS011;12802;53.390;-2.328;2023-02-28T07:28:41;2.10;;;1.05;;
24681;SDS011;12802;53.390;-2.328;2023-02-28T07:31:08;1.85;;;1.10;;
24681;SDS011;12802;53.390;-2.328;2023-02-28T07:33:34;2.30;;;1.58;;
24681;SDS011;12802;53.390;-2.328;2023-02-28T07:36:05;3.03;;;1.27;;
24681;SDS011;12802;53.390;-2.328;2023-02-28T07:38:36;3.53;;;1.65;;
24681;SDS011;12802;53.390;-2.328;2023-02-28T07:41:03;11.00;;;1.35;;
24681;SDS011;12802;53.390;-2.328;2023-02-28T07:43:29;5.72;;;1.17;;
24681;SDS011;12802;53.390;-2.328;2023-02-28T07:46:01;2.00;;;1.02;;
24681;SDS011;12802;53.390;-2.328;2023-02-28T07:48:31;2.33;;;1.48;;
24681;SDS011;12802;53.390;-2.328;2023-02-28T07:50:57;4.53;;;1.10;;
24681;SDS011;12802;53.390;-2.328;2023-02-28T07:53:24;2.85;;;1.23;;
24681;SDS011;12802;53.390;-2.328;2023-02-28T07:55:50;2.20;;;1.08;;
24681;SDS011;12802;53.390;-2.328;2023-02-28T07:58:16;3.63;;;1.60;;
24681;SDS011;12802;53.390;-2.328;2023-02-28T08:00:41;1.83;;;0.90;;
24681;SDS011;12802;53.390;-2.328;2023-02-28T08:03:10;2.55;;;0.90;;
24681;SDS011;12802;53.390;-2.328;2023-02-28T08:05:38;1.80;;;1.10;;
24681;SDS011;12802;53.390;-2.328;2023-02-28T08:08:05;3.03;;;1.52;;
24681;SDS011;12802;53.390;-2.328;2023-02-28T08:10:32;2.22;;;1.08;;
24681;SDS011;12802;53.390;-2.328;2023-02-28T08:12:58;3.45;;;1.30;;
24681;SDS011;12802;53.390;-2.328;2023-02-28T08:15:23;1.08;;;0.80;;
24681;SDS011;12802;53.390;-2.328;2023-02-28T08:17:49;3.65;;;1.40;;
24681;SDS011;12802;53.390;-2.328;2023-02-28T08:20:15;2.95;;;1.38;;
24681;SDS011;12802;53.390;-2.328;2023-02-28T08:22:41;7.53;;;1.48;;
24681;SDS011;12802;53.390;-2.328;2023-02-28T08:25:07;5.95;;;1.65;;
24681;SDS011;12802;53.390;-2.328;2023-02-28T08:27:33;4.75;;;1.77;;
24681;SDS011;12802;53.390;-2.328;2023-02-28T08:29:59;2.35;;;1.15;;
24681;SDS011;12802;53.390;-2.328;2023-02-28T08:32:25;4.15;;;1.05;;
24681;SDS011;12802;53.390;-2.328;2023-02-28T08:34:51;2.33;;;1.30;;
24681;SDS011;12802;53.390;-2.328;2023-02-28T08:37:17;2.17;;;1.33;;
24681;SDS011;12802;53.390;-2.328;2023-02-28T08:39:42;2.13;;;1.13;;
24681;SDS011;12802;53.390;-2.328;2023-02-28T08:42:08;3.35;;;1.17;;
24681;SDS011;12802;53.390;-2.328;2023-02-28T08:44:34;10.43;;;1.30;;
24681;SDS011;12802;53.390;-2.328;2023-02-28T08:47:00;1.83;;;1.05;;
24681;SDS011;12802;53.390;-2.328;2023-02-28T08:49:25;1.48;;;0.75;;
24681;SDS011;12802;53.390;-2.328;2023-02-28T08:51:51;3.85;;;1.25;;
24681;SDS011;12802;53.390;-2.328;2023-02-28T08:54:17;4.10;;;0.93;;
24681;SDS011;12802;53.390;-2.328;2023-02-28T08:56:45;4.90;;;1.75;;
24681;SDS011;12802;53.390;-2.328;2023-02-28T08:59:12;4.70;;;1.70;;
24681;SDS011;12802;53.390;-2.328;2023-02-28T09:01:38;2.13;;;1.35;;
24681;SDS011;12802;53.390;-2.328;2023-02-28T09:04:06;2.67;;;1.30;;
24681;SDS011;12802;53.390;-2.328;2023-02-28T09:06:34;2.97;;;1.27;;
24681;SDS011;12802;53.390;-2.328;2023-02-28T09:09:00;3.95;;;1.17;;
24681;SDS011;12802;53.390;-2.328;2023-02-28T09:11:26;2.30;;;1.52;;
24681;SDS011;12802;53.390;-2.328;2023-02-28T09:13:53;4.53;;;1.25;;
24681;SDS011;12802;53.390;-2.328;2023-02-28T09:16:21;3.65;;;1.38;;
24681;SDS011;12802;53.390;-2.328;2023-02-28T09:18:47;1.27;;;0.77;;
24681;SDS011;12802;53.390;-2.328;2023-02-28T09:21:15;1.92;;;0.70;;
24681;SDS011;12802;53.390;-2.328;2023-02-28T09:23:42;4.78;;;1.73;;
24681;SDS011;12802;53.390;-2.328;2023-02-28T09:26:12;1.00;;;0.90;;
24681;SDS011;12802;53.390;-2.328;2023-02-28T09:28:40;2.17;;;0.90;;
24681;SDS011;12802;53.390;-2.328;2023-02-28T09:31:06;2.20;;;0.93;;
24681;SDS011;12802;53.390;-2.328;2023-02-28T09:33:31;3.83;;;0.80;;
24681;SDS011;12802;53.390;-2.328;2023-02-28T09:36:00;3.65;;;0.82;;
24681;SDS011;12802;53.390;-2.328;2023-02-28T09:38:27;1.85;;;1.00;;
24681;SDS011;12802;53.390;-2.328;2023-02-28T09:40:54;5.18;;;0.98;;
24681;SDS011;12802;53.390;-2.328;2023-02-28T09:43:27;1.88;;;0.63;;
24681;SDS011;12802;53.390;-2.328;2023-02-28T09:48:46;4.57;;;0.52;;
24681;SDS011;12802;53.390;-2.328;2023-02-28T09:53:58;1.05;;;0.73;;
24681;SDS011;12802;53.390;-2.328;2023-02-28T09:56:25;1.27;;;0.30;;
24681;SDS011;12802;53.390;-2.328;2023-02-28T10:13:15;3.40;;;0.50;;
24681;SDS011;12802;53.390;-2.328;2023-02-28T10:15:58;0.90;;;0.43;;
24681;SDS011;12802;53.390;-2.328;2023-02-28T10:21:38;1.13;;;0.55;;
24681;SDS011;12802;53.390;-2.328;2023-02-28T10:26:56;4.60;;;0.50;;
24681;SDS011;12802;53.390;-2.328;2023-02-28T10:29:25;7.82;;;0.80;;
24681;SDS011;12802;53.390;-2.328;2023-02-28T10:31:52;1.08;;;0.50;;
24681;SDS011;12802;53.390;-2.328;2023-02-28T10:34:18;1.42;;;0.50;;
24681;SDS011;12802;53.390;-2.328;2023-02-28T10:36:44;2.92;;;0.63;;
24681;SDS011;12802;53.390;-2.328;2023-02-28T10:42:01;3.45;;;0.80;;
24681;SDS011;12802;53.390;-2.328;2023-02-28T10:44:28;3.33;;;0.93;;
24681;SDS011;12802;53.390;-2.328;2023-02-28T10:46:53;3.47;;;0.80;;
24681;SDS011;12802;53.390;-2.328;2023-02-28T10:49:24;1.70;;;0.60;;
24681;SDS011;12802;53.390;-2.328;2023-02-28T10:51:53;1.65;;;0.77;;
24681;SDS011;12802;53.390;-2.328;2023-02-28T10:54:32;0.93;;;0.60;;
24681;SDS011;12802;53.390;-2.328;2023-02-28T10:57:07;1.15;;;0.60;;
24681;SDS011;12802;53.390;-2.328;2023-02-28T10:59:38;0.95;;;0.50;;
24681;SDS011;12802;53.390;-2.328;2023-02-28T11:02:18;0.93;;;0.40;;
24681;SDS011;12802;53.390;-2.328;2023-02-28T11:04:58;1.27;;;0.70;;
24681;SDS011;12802;53.390;-2.328;2023-02-28T11:07:25;0.80;;;0.65;;
24681;SDS011;12802;53.390;-2.328;2023-02-28T11:09:56;0.70;;;0.50;;
24681;SDS011;12802;53.390;-2.328;2023-02-28T11:12:31;4.57;;;0.70;;
24681;SDS011;12802;53.390;-2.328;2023-02-28T11:15:05;0.30;;;0.20;;
24681;SDS011;12802;53.390;-2.328;2023-02-28T11:20:37;0.57;;;0.35;;
24681;SDS011;12802;53.390;-2.328;2023-02-28T11:23:05;0.98;;;0.30;;
24681;SDS011;12802;53.390;-2.328;2023-02-28T11:25:39;0.47;;;0.20;;
24681;SDS011;12802;53.390;-2.328;2023-02-28T11:38:45;0.15;;;0.10;;
24681;SDS011;12802;53.390;-2.328;2023-02-28T11:41:18;0.10;;;0.10;;
24681;SDS011;12802;53.390;-2.328;2023-02-28T11:47:12;0.85;;;0.30;;
24681;SDS011;12802;53.390;-2.328;2023-02-28T11:55:19;6.38;;;0.52;;
24681;SDS011;12802;53.390;-2.328;2023-02-28T11:58:30;4.63;;;0.50;;
24681;SDS011;12802;53.390;-2.328;2023-02-28T12:04:03;1.55;;;0.50;;
24681;SDS011;12802;53.390;-2.328;2023-02-28T12:06:40;0.85;;;0.28;;
24681;SDS011;12802;53.390;-2.328;2023-02-28T12:23:09;4.82;;;1.70;;
24681;SDS011;12802;53.390;-2.328;2023-02-28T12:28:36;4.50;;;1.15;;
24681;SDS011;12802;53.390;-2.328;2023-02-28T12:31:12;1.55;;;0.80;;
24681;SDS011;12802;53.390;-2.328;2023-02-28T12:33:46;2.70;;;0.57;;
24681;SDS011;12802;53.390;-2.328;2023-02-28T12:36:17;2.08;;;0.73;;
24681;SDS011;12802;53.390;-2.328;2023-02-28T12:38:58;3.13;;;1.00;;
24681;SDS011;12802;53.390;-2.328;2023-02-28T12:44:07;1.50;;;0.60;;
24681;SDS011;12802;53.390;-2.328;2023-02-28T12:46:45;1.08;;;0.60;;
24681;SDS011;12802;53.390;-2.328;2023-02-28T12:50:09;0.30;;;0.30;;
24681;SDS011;12802;53.390;-2.328;2023-02-28T12:52:13;1.38;;;0.82;;
24681;SDS011;12802;53.390;-2.328;2023-02-28T13:00:10;1.42;;;0.38;;
24681;SDS011;12802;53.390;-2.328;2023-02-28T13:02:59;2.30;;;1.00;;
24681;SDS011;12802;53.390;-2.328;2023-02-28T13:10:58;0.30;;;0.30;;
24681;SDS011;12802;53.390;-2.328;2023-02-28T13:13:24;2.20;;;0.73;;
24681;SDS011;12802;53.390;-2.328;2023-02-28T13:15:58;1.17;;;0.47;;
24681;SDS011;12802;53.390;-2.328;2023-02-28T13:18:45;4.10;;;0.70;;
24681;SDS011;12802;53.390;-2.328;2023-02-28T13:21:30;3.55;;;0.50;;
24681;SDS011;12802;53.390;-2.328;2023-02-28T13:24:07;0.40;;;0.15;;
24681;SDS011;12802;53.390;-2.328;2023-02-28T13:34:36;2.38;;;0.52;;
24681;SDS011;12802;53.390;-2.328;2023-02-28T13:39:53;2.15;;;0.65;;
24681;SDS011;12802;53.390;-2.328;2023-02-28T13:45:33;1.55;;;0.30;;
24681;SDS011;12802;53.390;-2.328;2023-02-28T13:47:54;4.05;;;0.68;;
24681;SDS011;12802;53.390;-2.328;2023-02-28T14:09:34;2.45;;;0.85;;
24681;SDS011;12802;53.390;-2.328;2023-02-28T14:18:22;3.85;;;0.68;;
24681;SDS011;12802;53.390;-2.328;2023-02-28T14:20:52;0.68;;;0.30;;
24681;SDS011;12802;53.390;-2.328;2023-02-28T14:24:01;0.98;;;0.38;;
24681;SDS011;12802;53.390;-2.328;2023-02-28T14:29:17;1.45;;;0.50;;
24681;SDS011;12802;53.390;-2.328;2023-02-28T14:37:28;3.72;;;0.50;;
24681;SDS011;12802;53.390;-2.328;2023-02-28T14:39:57;5.05;;;0.63;;
24681;SDS011;12802;53.390;-2.328;2023-02-28T14:42:29;1.63;;;0.30;;
24681;SDS011;12802;53.390;-2.328;2023-02-28T14:45:00;0.13;;;0.10;;
24681;SDS011;12802;53.390;-2.328;2023-02-28T14:47:27;2.85;;;0.35;;
24681;SDS011;12802;53.390;-2.328;2023-02-28T14:49:56;6.47;;;0.40;;
24681;SDS011;12802;53.390;-2.328;2023-02-28T14:52:24;0.60;;;0.28;;
24681;SDS011;12802;53.390;-2.328;2023-02-28T14:55:01;2.40;;;0.50;;
24681;SDS011;12802;53.390;-2.328;2023-02-28T14:57:39;1.33;;;0.50;;
24681;SDS011;12802;53.390;-2.328;2023-02-28T15:02:40;3.25;;;0.32;;
24681;SDS011;12802;53.390;-2.328;2023-02-28T15:07:38;0.35;;;0.20;;
24681;SDS011;12802;53.390;-2.328;2023-02-28T15:12:57;1.08;;;0.20;;
24681;SDS011;12802;53.390;-2.328;2023-02-28T15:21:15;5.15;;;0.22;;
24681;SDS011;12802;53.390;-2.328;2023-02-28T15:23:46;1.23;;;0.52;;
24681;SDS011;12802;53.390;-2.328;2023-02-28T15:26:18;1.02;;;0.28;;
24681;SDS011;12802;53.390;-2.328;2023-02-28T15:28:46;0.57;;;0.30;;
24681;SDS011;12802;53.390;-2.328;2023-02-28T15:31:28;3.50;;;0.43;;
24681;SDS011;12802;53.390;-2.328;2023-02-28T15:33:58;2.90;;;0.40;;
24681;SDS011;12802;53.390;-2.328;2023-02-28T15:36:30;3.65;;;0.47;;
24681;SDS011;12802;53.390;-2.328;2023-02-28T15:39:00;4.00;;;0.70;;
24681;SDS011;12802;53.390;-2.328;2023-02-28T15:41:28;3.28;;;0.68;;
24681;SDS011;12802;53.390;-2.328;2023-02-28T15:52:24;1.88;;;0.50;;
24681;SDS011;12802;53.390;-2.328;2023-02-28T15:54:57;7.03;;;1.00;;
24681;SDS011;12802;53.390;-2.328;2023-02-28T15:57:24;2.47;;;0.70;;
24681;SDS011;12802;53.390;-2.328;2023-02-28T15:59:56;1.08;;;0.50;;
24681;SDS011;12802;53.390;-2.328;2023-02-28T16:02:35;2.92;;;0.82;;
24681;SDS011;12802;53.390;-2.328;2023-02-28T16:07:31;2.10;;;0.65;;
24681;SDS011;12802;53.390;-2.328;2023-02-28T16:09:58;1.58;;;0.63;;
24681;SDS011;12802;53.390;-2.328;2023-02-28T16:12:25;1.58;;;0.47;;
24681;SDS011;12802;53.390;-2.328;2023-02-28T16:14:57;14.90;;;0.88;;
24681;SDS011;12802;53.390;-2.328;2023-02-28T16:17:28;4.85;;;2.08;;
24681;SDS011;12802;53.390;-2.328;2023-02-28T16:19:56;2.53;;;0.82;;
24681;SDS011;12802;53.390;-2.328;2023-02-28T16:22:23;1.77;;;0.70;;
24681;SDS011;12802;53.390;-2.328;2023-02-28T16:24:48;1.48;;;0.60;;
24681;SDS011;12802;53.390;-2.328;2023-02-28T16:27:36;5.00;;;0.70;;
24681;SDS011;12802;53.390;-2.328;2023-02-28T16:30:02;1.10;;;0.60;;
24681;SDS011;12802;53.390;-2.328;2023-02-28T16:32:29;2.03;;;0.32;;
24681;SDS011;12802;53.390;-2.328;2023-02-28T16:34:56;6.95;;;1.02;;
24681;SDS011;12802;53.390;-2.328;2023-02-28T16:37:21;1.92;;;0.52;;
24681;SDS011;12802;53.390;-2.328;2023-02-28T16:39:47;5.72;;;0.95;;
24681;SDS011;12802;53.390;-2.328;2023-02-28T16:42:27;8.90;;;0.90;;
24681;SDS011;12802;53.390;-2.328;2023-02-28T16:44:54;1.95;;;0.73;;
24681;SDS011;12802;53.390;-2.328;2023-02-28T16:47:20;1.90;;;0.75;;
24681;SDS011;12802;53.390;-2.328;2023-02-28T16:49:47;3.08;;;0.80;;
24681;SDS011;12802;53.390;-2.328;2023-02-28T16:52:13;7.82;;;1.08;;
24681;SDS011;12802;53.390;-2.328;2023-02-28T16:54:40;2.70;;;0.32;;
24681;SDS011;12802;53.390;-2.328;2023-02-28T16:57:06;5.57;;;1.17;;
24681;SDS011;12802;53.390;-2.328;2023-02-28T16:59:44;0.80;;;0.25;;
24681;SDS011;12802;53.390;-2.328;2023-02-28T17:02:13;0.45;;;0.32;;
24681;SDS011;12802;53.390;-2.328;2023-02-28T17:04:40;6.70;;;0.70;;
24681;SDS011;12802;53.390;-2.328;2023-02-28T17:07:08;4.15;;;0.60;;
24681;SDS011;12802;53.390;-2.328;2023-02-28T17:09:37;2.42;;;0.65;;
24681;SDS011;12802;53.390;-2.328;2023-02-28T17:12:03;1.63;;;0.85;;
24681;SDS011;12802;53.390;-2.328;2023-02-28T17:14:29;1.95;;;0.80;;
24681;SDS011;12802;53.390;-2.328;2023-02-28T17:16:54;0.85;;;0.50;;
24681;SDS011;12802;53.390;-2.328;2023-02-28T17:19:20;7.32;;;1.05;;
24681;SDS011;12802;53.390;-2.328;2023-02-28T17:21:46;3.13;;;0.80;;
24681;SDS011;12802;53.390;-2.328;2023-02-28T17:24:12;1.50;;;0.57;;
24681;SDS011;12802;53.390;-2.328;2023-02-28T17:26:41;2.10;;;0.80;;
24681;SDS011;12802;53.390;-2.328;2023-02-28T17:29:13;4.75;;;1.05;;
24681;SDS011;12802;53.390;-2.328;2023-02-28T17:31:43;1.88;;;1.08;;
24681;SDS011;12802;53.390;-2.328;2023-02-28T17:34:09;1.95;;;0.43;;
24681;SDS011;12802;53.390;-2.328;2023-02-28T17:36:35;1.48;;;0.65;;
24681;SDS011;12802;53.390;-2.328;2023-02-28T17:39:03;4.57;;;1.05;;
24681;SDS011;12802;53.390;-2.328;2023-02-28T17:41:34;1.75;;;0.85;;
24681;SDS011;12802;53.390;-2.328;2023-02-28T17:43:59;5.95;;;0.90;;
24681;SDS011;12802;53.390;-2.328;2023-02-28T17:46:25;1.00;;;0.60;;
24681;SDS011;12802;53.390;-2.328;2023-02-28T17:48:53;2.17;;;1.30;;
24681;SDS011;12802;53.390;-2.328;2023-02-28T17:51:20;1.92;;;0.90;;
24681;SDS011;12802;53.390;-2.328;2023-02-28T17:53:47;1.95;;;0.70;;
24681;SDS011;12802;53.390;-2.328;2023-02-28T17:56:21;1.42;;;0.77;;
24681;SDS011;12802;53.390;-2.328;2023-02-28T17:58:54;1.38;;;0.68;;